createdAt,value
2017-12-11T00:00:46.512Z,17.13
2017-12-11T00:03:14.128Z,13.03
2017-12-11T00:05:41.753Z,15.93
2017-12-11T00:08:09.794Z,14.73
2017-12-11T00:10:37.387Z,17.87
2017-12-11T00:13:05.229Z,15.13
2017-12-11T00:15:32.910Z,14.47
2017-12-11T00:18:01.433Z,12.90
2017-12-11T00:20:29.582Z,13.13
2017-12-11T00:22:57.364Z,13.33
2017-12-11T00:25:26.754Z,13.87
2017-12-11T00:27:54.600Z,13.93
2017-12-11T00:30:22.182Z,13.57
2017-12-11T00:32:50.283Z,12.50
2017-12-11T00:35:18.119Z,15.67
2017-12-11T00:37:45.791Z,16.73
2017-12-11T00:40:13.399Z,8.70
2017-12-11T00:42:41.704Z,13.13
2017-12-11T00:45:10.123Z,12.13
2017-12-11T00:47:38.079Z,13.80
2017-12-11T00:50:07.085Z,14.80
2017-12-11T00:52:34.785Z,12.07
2017-12-11T00:55:03.322Z,12.63
2017-12-11T00:57:31.201Z,11.70
2017-12-11T00:59:59.282Z,13.87
2017-12-11T01:02:27.119Z,8.23
2017-12-11T01:04:54.968Z,9.20
2017-12-11T01:07:22.994Z,12.37
2017-12-11T01:09:51.063Z,9.27
2017-12-11T01:12:18.986Z,9.20
2017-12-11T01:14:46.852Z,9.73
2017-12-11T01:17:14.662Z,10.37
2017-12-11T01:19:42.788Z,9.20
2017-12-11T01:22:10.459Z,7.30
2017-12-11T01:24:39.466Z,7.97
2017-12-11T01:27:08.021Z,8.33
2017-12-11T01:29:35.598Z,10.77
2017-12-11T01:32:03.967Z,6.33
2017-12-11T01:34:31.558Z,9.43
2017-12-11T01:36:59.208Z,7.93
2017-12-11T01:39:26.850Z,8.03
2017-12-11T01:41:54.436Z,6.67
2017-12-11T01:44:22.052Z,9.23
2017-12-11T01:46:49.735Z,9.37
2017-12-11T01:49:17.294Z,6.80
2017-12-11T01:51:45.175Z,6.40
2017-12-11T01:54:12.832Z,6.00
2017-12-11T01:56:40.389Z,7.57
2017-12-11T01:59:07.940Z,8.73
2017-12-11T02:01:35.492Z,6.60
2017-12-11T02:04:03.155Z,7.47
2017-12-11T02:06:30.761Z,7.30
2017-12-11T02:08:58.323Z,5.37
2017-12-11T02:11:25.930Z,6.73
2017-12-11T02:13:53.515Z,7.43
2017-12-11T02:16:21.126Z,5.50
2017-12-11T02:18:49.579Z,5.63
2017-12-11T02:21:17.188Z,7.33
2017-12-11T02:23:44.767Z,7.43
2017-12-11T02:26:12.325Z,8.33
2017-12-11T02:28:39.988Z,7.83
2017-12-11T02:31:07.583Z,6.83
2017-12-11T02:33:35.346Z,5.33
2017-12-11T02:36:02.921Z,7.17
2017-12-11T02:38:30.524Z,5.77
2017-12-11T02:40:58.083Z,6.03
2017-12-11T02:43:25.674Z,8.00
2017-12-11T02:45:53.263Z,7.80
2017-12-11T02:48:20.857Z,6.10
2017-12-11T02:50:48.426Z,6.90
2017-12-11T02:53:15.994Z,6.87
2017-12-11T02:55:43.552Z,8.13
2017-12-11T02:58:11.111Z,8.37
2017-12-11T03:00:39.466Z,8.67
2017-12-11T03:03:07.023Z,9.10
2017-12-11T03:05:35.336Z,8.80
2017-12-11T03:08:02.907Z,13.63
2017-12-11T03:10:30.478Z,9.53
2017-12-11T03:12:58.831Z,6.30
2017-12-11T03:15:26.388Z,8.07
2017-12-11T03:17:53.942Z,10.97
2017-12-11T03:20:22.816Z,9.03
2017-12-11T03:22:50.423Z,10.67
2017-12-11T03:25:17.995Z,10.67
2017-12-11T03:27:45.619Z,6.90
2017-12-11T03:30:13.216Z,8.63
2017-12-11T03:32:40.810Z,10.40
2017-12-11T03:35:09.268Z,8.13
2017-12-11T03:37:36.819Z,11.00
2017-12-11T03:40:04.405Z,8.83
2017-12-11T03:42:32.757Z,13.63
2017-12-11T03:45:00.485Z,10.17
2017-12-11T03:47:28.734Z,12.50
2017-12-11T03:49:56.326Z,7.27
2017-12-11T03:52:23.906Z,8.90
2017-12-11T03:54:51.547Z,9.63
2017-12-11T03:57:19.708Z,7.70
2017-12-11T03:59:47.433Z,5.90
2017-12-11T04:02:15.056Z,6.60
2017-12-11T04:04:42.654Z,13.43
2017-12-11T04:07:10.280Z,8.17
2017-12-11T04:09:37.849Z,4.77
2017-12-11T04:12:05.410Z,7.70
2017-12-11T04:14:33.007Z,5.80
2017-12-11T04:17:01.336Z,7.50
2017-12-11T04:19:28.942Z,3.83
2017-12-11T04:21:56.501Z,7.20
2017-12-11T04:24:24.130Z,5.37
2017-12-11T04:26:51.689Z,6.73
2017-12-11T04:29:19.290Z,8.30
2017-12-11T04:31:47.599Z,9.03
2017-12-11T04:34:15.271Z,4.37
2017-12-11T04:36:42.843Z,4.10
2017-12-11T04:39:10.474Z,4.47
2017-12-11T04:41:38.030Z,3.60
2017-12-11T04:44:05.633Z,6.53
2017-12-11T04:46:33.295Z,3.80
2017-12-11T04:49:00.895Z,4.50
2017-12-11T04:51:28.451Z,4.60
2017-12-11T04:53:56.019Z,4.20
2017-12-11T04:56:23.568Z,5.50
2017-12-11T04:58:51.959Z,5.73
2017-12-11T05:01:20.275Z,4.17
2017-12-11T05:03:47.843Z,5.50
2017-12-11T05:06:15.398Z,5.17
2017-12-11T05:08:43.010Z,4.93
2017-12-11T05:11:10.632Z,3.70
2017-12-11T05:13:38.210Z,4.67
2017-12-11T05:16:05.822Z,4.47
2017-12-11T05:18:33.388Z,3.77
2017-12-11T05:21:00.983Z,4.70
2017-12-11T05:23:28.593Z,4.43
2017-12-11T05:25:56.205Z,4.40
2017-12-11T05:28:23.896Z,5.53
2017-12-11T05:30:51.488Z,5.40
2017-12-11T05:33:19.038Z,6.07
2017-12-11T05:35:46.635Z,5.50
2017-12-11T05:38:14.182Z,5.77
2017-12-11T05:40:41.735Z,4.97
2017-12-11T05:43:09.604Z,5.17
2017-12-11T05:45:37.218Z,5.70
2017-12-11T05:48:04.856Z,5.33
2017-12-11T05:50:32.630Z,5.53
2017-12-11T05:53:00.210Z,5.60
2017-12-11T05:55:27.870Z,5.60
2017-12-11T05:57:56.993Z,9.57
2017-12-11T06:00:24.626Z,7.97
2017-12-11T06:02:52.225Z,7.50
2017-12-11T06:05:19.806Z,7.87
2017-12-11T06:07:47.402Z,7.30
2017-12-11T06:10:15.121Z,7.23
2017-12-11T06:12:42.730Z,7.43
2017-12-11T06:15:10.329Z,7.27
2017-12-11T06:17:37.896Z,7.27
2017-12-11T06:20:05.746Z,7.80
2017-12-11T06:22:33.302Z,9.23
2017-12-11T06:25:00.895Z,7.50
2017-12-11T06:27:28.493Z,8.30
2017-12-11T06:29:56.746Z,6.93
2017-12-11T06:32:24.382Z,7.93
2017-12-11T06:34:51.985Z,7.57
2017-12-11T06:37:19.581Z,7.40
2017-12-11T06:39:47.217Z,7.37
2017-12-11T06:42:14.787Z,7.50
2017-12-11T06:44:42.383Z,8.87
2017-12-11T06:47:10.047Z,8.33
2017-12-11T06:49:37.594Z,7.87
2017-12-11T06:52:05.229Z,8.10
2017-12-11T06:54:33.589Z,8.63
2017-12-11T06:57:01.193Z,8.67
2017-12-11T06:59:28.824Z,7.63
2017-12-11T07:01:57.262Z,9.10
2017-12-11T07:04:24.851Z,9.03
2017-12-11T07:06:52.680Z,10.03
2017-12-11T07:09:20.243Z,8.63
2017-12-11T07:11:47.905Z,8.67
2017-12-11T07:14:15.752Z,8.23
2017-12-11T07:16:43.317Z,8.03
2017-12-11T07:19:11.042Z,8.63
2017-12-11T07:21:38.961Z,8.73
2017-12-11T07:24:06.536Z,9.30
2017-12-11T07:26:34.476Z,10.30
2017-12-11T07:29:02.161Z,10.03
2017-12-11T07:31:29.823Z,9.83
2017-12-11T07:33:57.396Z,8.13
2017-12-11T07:36:25.691Z,9.20
2017-12-11T07:38:53.263Z,9.10
2017-12-11T07:41:20.873Z,10.87
2017-12-11T07:43:48.512Z,9.37
2017-12-11T07:46:16.201Z,9.97
2017-12-11T07:48:43.815Z,9.80
2017-12-11T07:51:11.904Z,11.77
2017-12-11T07:53:40.215Z,16.53
2017-12-11T07:56:07.841Z,11.53
2017-12-11T07:58:36.178Z,12.03
2017-12-11T08:01:04.606Z,14.53
2017-12-11T08:03:32.186Z,19.37
2017-12-11T08:05:59.821Z,12.70
2017-12-11T08:08:27.435Z,13.90
2017-12-11T08:10:55.042Z,16.40
2017-12-11T08:13:22.601Z,12.50
2017-12-11T08:15:50.226Z,14.83
2017-12-11T08:18:17.848Z,13.80
2017-12-11T08:20:45.411Z,15.53
2017-12-11T08:23:13.491Z,10.73
2017-12-11T08:25:41.695Z,30.57
2017-12-11T08:28:09.338Z,14.30
2017-12-11T08:30:37.108Z,11.67
2017-12-11T08:33:05.556Z,12.33
2017-12-11T08:35:33.128Z,12.60
2017-12-11T08:38:00.732Z,18.57
2017-12-11T08:40:28.343Z,12.07
2017-12-11T08:42:59.334Z,14.07
2017-12-11T08:45:27.712Z,12.70
2017-12-11T08:47:55.353Z,10.93
2017-12-11T08:50:23.014Z,15.83
2017-12-11T08:52:50.624Z,28.40
2017-12-11T08:55:18.208Z,12.63
2017-12-11T08:57:45.822Z,12.90
2017-12-11T09:00:14.260Z,14.47
2017-12-11T09:02:41.941Z,17.03
2017-12-11T09:05:09.500Z,12.13
2017-12-11T09:07:37.174Z,12.33
2017-12-11T09:10:04.802Z,12.77
2017-12-11T09:12:32.465Z,11.83
2017-12-11T09:15:00.671Z,13.53
2017-12-11T09:17:28.300Z,12.43
2017-12-11T09:19:56.016Z,13.60
2017-12-11T09:22:23.755Z,13.23
2017-12-11T09:24:51.335Z,12.40
2017-12-11T09:27:19.134Z,15.13
2017-12-11T09:29:46.759Z,11.63
2017-12-11T09:32:14.328Z,11.77
2017-12-11T09:34:43.253Z,11.57
2017-12-11T09:37:10.924Z,13.07
2017-12-11T09:39:38.515Z,12.10
2017-12-11T09:42:06.154Z,12.37
2017-12-11T09:44:33.761Z,9.83
2017-12-11T09:47:01.471Z,12.60
2017-12-11T09:49:29.077Z,12.97
2017-12-11T09:51:56.673Z,12.60
2017-12-11T09:54:24.279Z,16.33
2017-12-11T09:56:52.099Z,12.17
2017-12-11T09:59:19.684Z,12.70
2017-12-11T10:01:47.283Z,12.03
2017-12-11T10:04:15.800Z,11.43
2017-12-11T10:06:44.156Z,11.03
2017-12-11T10:09:12.644Z,15.17
2017-12-11T10:11:40.993Z,27.07
2017-12-11T10:14:09.180Z,12.80
2017-12-11T10:16:36.800Z,11.80
2017-12-11T10:19:04.435Z,12.83
2017-12-11T10:21:32.157Z,12.10
2017-12-11T10:24:00.564Z,13.93
2017-12-11T10:26:28.137Z,12.10
2017-12-11T10:28:55.754Z,13.50
2017-12-11T10:31:23.588Z,11.90
2017-12-11T10:33:51.251Z,11.20
2017-12-11T10:36:18.836Z,11.57
2017-12-11T10:38:46.417Z,12.83
2017-12-11T10:41:14.045Z,12.17
2017-12-11T10:43:41.624Z,12.07
2017-12-11T10:46:09.447Z,13.80
2017-12-11T10:48:37.049Z,13.43
2017-12-11T10:51:04.670Z,14.37
2017-12-11T10:53:32.623Z,11.50
2017-12-11T10:56:00.239Z,14.07
2017-12-11T10:58:27.886Z,17.10
2017-12-11T11:00:55.491Z,14.67
2017-12-11T11:03:23.867Z,19.67
2017-12-11T11:05:51.456Z,13.97
2017-12-11T11:08:19.091Z,22.80
2017-12-11T11:10:46.675Z,13.33
2017-12-11T11:13:14.764Z,14.40
2017-12-11T11:15:42.354Z,13.87
2017-12-11T11:18:10.014Z,13.30
2017-12-11T11:20:37.663Z,14.73
2017-12-11T11:23:05.264Z,13.43
2017-12-11T11:25:32.847Z,14.43
2017-12-11T11:28:00.463Z,16.60
2017-12-11T11:30:28.845Z,14.80
2017-12-11T11:32:56.404Z,14.00
2017-12-11T11:35:23.967Z,13.90
2017-12-11T11:37:51.830Z,12.73
2017-12-11T11:40:19.424Z,12.13
2017-12-11T11:42:55.604Z,13.30
2017-12-11T11:45:23.336Z,15.70
2017-12-11T11:47:51.005Z,14.00
2017-12-11T11:50:18.627Z,12.80
2017-12-11T11:52:46.279Z,13.27
2017-12-11T11:55:13.866Z,14.23
2017-12-11T11:57:41.668Z,13.13
2017-12-11T12:00:10.035Z,14.10
2017-12-11T12:02:38.430Z,13.00
2017-12-11T12:05:06.807Z,13.23
2017-12-11T12:07:35.198Z,13.60
2017-12-11T12:10:02.789Z,15.53
2017-12-11T12:12:30.586Z,14.27
2017-12-11T12:14:58.177Z,14.63
2017-12-11T12:17:25.968Z,17.03
2017-12-11T12:19:53.536Z,17.63
2017-12-11T12:22:21.155Z,16.30
2017-12-11T12:24:49.534Z,15.90
2017-12-11T12:27:17.918Z,18.23
2017-12-11T12:29:46.329Z,15.93
2017-12-11T12:32:14.146Z,16.10
2017-12-11T12:34:41.787Z,14.33
2017-12-11T12:37:09.424Z,16.67
2017-12-11T12:39:37.042Z,15.77
2017-12-11T12:42:05.428Z,15.57
2017-12-11T12:44:33.755Z,17.17
2017-12-11T12:47:01.371Z,20.43
2017-12-11T12:49:29.058Z,17.60
2017-12-11T12:51:56.671Z,17.73
2017-12-11T12:54:25.041Z,15.93
2017-12-11T12:56:53.791Z,18.37
2017-12-11T12:59:22.276Z,16.77
2017-12-11T13:01:49.935Z,17.27
2017-12-11T13:04:17.580Z,17.80
2017-12-11T13:06:45.151Z,20.07
2017-12-11T13:09:12.889Z,16.83
2017-12-11T13:11:40.609Z,18.10
2017-12-11T13:14:11.112Z,23.43
2017-12-11T13:16:39.283Z,21.43
2017-12-11T13:19:07.082Z,22.93
2017-12-11T13:21:35.226Z,23.67
2017-12-11T13:24:02.847Z,30.73
2017-12-11T13:29:22.687Z,25.57
2017-12-11T13:31:50.856Z,23.50
2017-12-11T13:34:28.986Z,24.20
2017-12-11T13:36:57.346Z,21.33
2017-12-11T13:39:24.965Z,20.30
2017-12-11T13:41:52.596Z,20.90
2017-12-11T13:44:20.218Z,15.33
2017-12-11T13:46:47.873Z,18.73
2017-12-11T13:49:15.690Z,18.93
2017-12-11T13:51:43.409Z,18.53
2017-12-11T13:54:11.045Z,14.97
2017-12-11T13:56:38.726Z,18.27
2017-12-11T13:59:06.373Z,20.97
2017-12-11T14:01:34.004Z,17.90
2017-12-11T14:04:01.585Z,19.13
2017-12-11T14:06:33.811Z,19.80
2017-12-11T14:09:01.544Z,17.07
2017-12-11T14:11:29.159Z,12.87
2017-12-11T14:13:56.812Z,17.30
2017-12-11T14:16:24.475Z,17.83
2017-12-11T14:18:52.071Z,16.37
2017-12-11T14:21:19.733Z,16.90
2017-12-11T14:23:48.405Z,14.93
2017-12-11T14:26:16.133Z,15.50
2017-12-11T14:28:43.795Z,15.47
2017-12-11T14:31:11.664Z,15.13
2017-12-11T14:33:39.316Z,17.07
2017-12-11T14:36:07.080Z,15.40
2017-12-11T14:38:35.650Z,15.50
2017-12-11T14:41:03.331Z,15.43
2017-12-11T14:43:31.006Z,16.03
2017-12-11T14:45:58.660Z,14.17
2017-12-11T14:48:26.347Z,14.33
2017-12-11T14:50:55.514Z,16.53
2017-12-11T14:53:23.206Z,17.47
2017-12-11T14:55:50.971Z,17.60
2017-12-11T14:58:18.624Z,16.37
2017-12-11T15:00:46.462Z,16.27
2017-12-11T15:03:14.101Z,14.87
2017-12-11T15:05:41.753Z,17.73
2017-12-11T15:08:10.134Z,19.10
2017-12-11T15:10:38.043Z,19.00
2017-12-11T15:13:05.696Z,16.83
2017-12-11T15:15:34.229Z,16.93
2017-12-11T15:18:01.829Z,19.53
2017-12-11T15:20:29.461Z,18.60
2017-12-11T15:22:57.162Z,20.43
2017-12-11T15:25:24.765Z,20.90
2017-12-11T15:27:52.339Z,18.57
2017-12-11T15:30:19.948Z,24.37
2017-12-11T15:32:47.715Z,20.60
2017-12-11T15:35:15.340Z,25.23
2017-12-11T15:37:43.005Z,22.60
2017-12-11T15:40:10.804Z,23.47
2017-12-11T15:42:38.387Z,20.03
2017-12-11T15:45:06.027Z,27.67
2017-12-11T15:47:33.678Z,21.40
2017-12-11T15:50:01.400Z,19.80
2017-12-11T15:52:29.063Z,19.67
2017-12-11T15:54:56.701Z,18.37
2017-12-11T15:57:24.489Z,20.43
2017-12-11T15:59:52.093Z,18.27
2017-12-11T16:02:19.773Z,21.57
2017-12-11T16:04:47.407Z,24.63
2017-12-11T16:07:15.061Z,21.10
2017-12-11T16:09:42.949Z,24.00
2017-12-11T16:12:10.537Z,23.27
2017-12-11T16:14:38.360Z,21.23
2017-12-11T16:17:06.025Z,29.63
2017-12-11T16:19:33.673Z,24.53
2017-12-11T16:22:02.068Z,18.83
2017-12-11T16:24:29.773Z,22.57
2017-12-11T16:26:57.467Z,28.30
2017-12-11T16:29:25.846Z,24.03
2017-12-11T16:31:55.553Z,35.17
2017-12-11T16:34:23.158Z,31.20
2017-12-11T16:36:50.972Z,35.17
2017-12-11T16:39:19.387Z,34.23
2017-12-11T16:41:48.510Z,13.07
2017-12-11T16:44:16.100Z,39.33
2017-12-11T16:46:43.719Z,31.73
2017-12-11T16:49:11.466Z,34.87
2017-12-11T16:51:39.099Z,31.67
2017-12-11T16:54:07.655Z,30.43
2017-12-11T16:56:35.430Z,34.00
2017-12-11T16:59:03.136Z,47.70
2017-12-11T17:01:30.759Z,47.70
2017-12-11T17:03:58.367Z,44.27
2017-12-11T17:06:25.970Z,44.50
2017-12-11T17:08:53.748Z,25.67
2017-12-11T17:11:21.391Z,36.07
2017-12-11T17:13:49.342Z,44.93
2017-12-11T17:16:16.984Z,40.47
2017-12-11T17:18:44.625Z,32.70
2017-12-11T17:21:12.215Z,32.67
2017-12-11T17:23:39.793Z,28.10
2017-12-11T17:26:08.093Z,33.13
2017-12-11T17:28:35.708Z,28.93
2017-12-11T17:31:03.386Z,28.17
2017-12-11T17:33:30.989Z,25.63
2017-12-11T17:35:58.848Z,26.33
2017-12-11T17:38:26.472Z,30.33
2017-12-11T17:40:54.454Z,34.63
2017-12-11T17:43:22.034Z,27.27
2017-12-11T17:45:49.714Z,30.83
2017-12-11T17:48:17.663Z,26.23
2017-12-11T17:50:45.410Z,29.43
2017-12-11T17:53:13.585Z,19.93
2017-12-11T17:55:42.875Z,33.93
2017-12-11T17:58:10.730Z,34.63
2017-12-11T18:00:38.680Z,27.47
2017-12-11T18:03:06.308Z,33.67
2017-12-11T18:05:33.888Z,22.40
2017-12-11T18:08:02.312Z,25.93
2017-12-11T18:10:29.915Z,26.53
2017-12-11T18:12:57.515Z,31.93
2017-12-11T18:15:25.205Z,29.17
2017-12-11T18:17:52.847Z,28.80
2017-12-11T18:20:20.451Z,28.80
2017-12-11T18:22:48.084Z,29.60
2017-12-11T18:25:15.720Z,28.67
2017-12-11T18:27:43.634Z,29.13
2017-12-11T18:30:11.385Z,36.40
2017-12-11T18:32:38.993Z,27.70
2017-12-11T18:35:07.424Z,28.60
2017-12-11T18:37:35.037Z,25.80
2017-12-11T18:40:03.436Z,28.60
2017-12-11T18:42:31.468Z,25.30
2017-12-11T18:44:59.088Z,23.97
2017-12-11T18:47:26.687Z,24.37
2017-12-11T18:49:54.307Z,24.03
2017-12-11T18:52:21.888Z,21.73
2017-12-11T18:54:49.466Z,19.13
2017-12-11T18:57:17.060Z,20.37
2017-12-11T18:59:44.661Z,23.60
2017-12-11T19:02:12.284Z,29.83
2017-12-11T19:04:40.715Z,29.30
2017-12-11T19:07:08.555Z,20.30
2017-12-11T19:09:36.123Z,28.60
2017-12-11T19:12:03.857Z,30.80
2017-12-11T19:14:31.443Z,27.83
2017-12-11T19:16:59.759Z,26.40
2017-12-11T19:19:27.386Z,46.10
2017-12-11T19:21:54.976Z,25.03
2017-12-11T19:24:22.606Z,26.73
2017-12-11T19:26:50.521Z,29.53
2017-12-11T19:29:18.181Z,24.30
2017-12-11T19:31:46.389Z,22.67
2017-12-11T19:34:14.016Z,25.13
2017-12-11T19:36:41.586Z,23.53
2017-12-11T19:39:09.211Z,21.13
2017-12-11T19:41:36.812Z,22.70
2017-12-11T19:44:04.564Z,21.83
2017-12-11T19:46:32.181Z,21.50
2017-12-11T19:48:59.988Z,19.70
2017-12-11T19:51:28.635Z,17.17
2017-12-11T19:53:56.810Z,22.47
2017-12-11T19:56:24.417Z,19.97
2017-12-11T19:58:52.152Z,24.50
2017-12-11T20:01:19.734Z,21.03
2017-12-11T20:03:47.498Z,16.57
2017-12-11T20:06:15.137Z,23.77
2017-12-11T20:08:43.384Z,17.93
2017-12-11T20:11:11.716Z,23.27
2017-12-11T20:13:39.295Z,21.37
2017-12-11T20:16:06.933Z,21.10
2017-12-11T20:18:34.878Z,28.17
2017-12-11T20:21:03.231Z,18.83
2017-12-11T20:23:30.839Z,19.43
2017-12-11T20:25:58.597Z,19.87
2017-12-11T20:28:26.200Z,17.37
2017-12-11T20:30:54.647Z,17.63
2017-12-11T20:33:22.236Z,17.80
2017-12-11T20:35:49.852Z,15.83
2017-12-11T20:38:17.426Z,16.57
2017-12-11T20:40:45.048Z,18.73
2017-12-11T20:43:12.641Z,92.73
2017-12-11T20:45:40.933Z,18.40
2017-12-11T20:48:08.562Z,14.97
2017-12-11T20:50:36.149Z,15.80
2017-12-11T20:53:03.997Z,17.40
2017-12-11T20:55:32.384Z,17.60
2017-12-11T20:58:00.075Z,15.17
2017-12-11T21:00:28.478Z,14.90
2017-12-11T21:02:56.610Z,20.07
2017-12-11T21:05:25.062Z,14.93
2017-12-11T21:07:53.850Z,16.47
2017-12-11T21:10:22.431Z,15.97
2017-12-11T21:12:51.131Z,14.40
2017-12-11T21:15:18.747Z,15.77
2017-12-11T21:17:46.337Z,15.97
2017-12-11T21:20:14.207Z,15.50
2017-12-11T21:22:42.281Z,15.10
2017-12-11T21:25:10.276Z,14.97
2017-12-11T21:27:38.010Z,18.20
2017-12-11T21:30:05.623Z,20.20
2017-12-11T21:32:33.234Z,16.80
2017-12-11T21:35:01.026Z,18.00
2017-12-11T21:37:28.961Z,18.37
2017-12-11T21:39:56.869Z,17.30
2017-12-11T21:42:25.641Z,16.33
2017-12-11T21:44:54.024Z,17.13
2017-12-11T21:47:21.831Z,17.90
2017-12-11T21:49:51.041Z,17.43
2017-12-11T21:52:19.259Z,15.93
2017-12-11T21:54:47.481Z,17.20
2017-12-11T21:57:15.912Z,16.50
2017-12-11T21:59:44.495Z,18.07
2017-12-11T22:02:12.261Z,18.60
2017-12-11T22:04:40.328Z,19.33
2017-12-11T22:07:09.458Z,19.13
2017-12-11T22:09:37.589Z,17.57
2017-12-11T22:12:05.262Z,16.53
2017-12-11T22:14:32.898Z,19.40
2017-12-11T22:17:00.741Z,18.53
2017-12-11T22:19:29.386Z,17.43
2017-12-11T22:21:58.141Z,18.40
2017-12-11T22:24:25.775Z,22.87
2017-12-11T22:26:53.351Z,28.80
2017-12-11T22:29:21.843Z,16.53
2017-12-11T22:31:49.906Z,17.80
2017-12-11T22:34:18.329Z,23.33
2017-12-11T22:36:45.951Z,20.00
2017-12-11T22:39:14.057Z,19.27
2017-12-11T22:41:42.510Z,17.50
2017-12-11T22:44:10.355Z,16.80
2017-12-11T22:46:37.927Z,21.67
2017-12-11T22:49:06.350Z,22.57
2017-12-11T22:51:35.226Z,19.37
2017-12-11T22:54:03.994Z,27.03
2017-12-11T22:56:31.973Z,19.27
2017-12-11T22:59:00.436Z,21.23
2017-12-11T23:01:28.541Z,21.83
2017-12-11T23:03:56.599Z,20.57
2017-12-11T23:06:24.528Z,22.67
2017-12-11T23:08:52.159Z,20.37
2017-12-11T23:11:20.559Z,30.10
2017-12-11T23:13:48.960Z,23.33
2017-12-11T23:16:16.590Z,22.53
2017-12-11T23:18:44.459Z,19.87
2017-12-11T23:21:12.954Z,17.77
2017-12-11T23:23:40.531Z,17.77
2017-12-11T23:26:08.115Z,15.20
2017-12-11T23:28:37.060Z,16.30
2017-12-11T23:31:04.798Z,16.23
2017-12-11T23:33:32.933Z,17.17
2017-12-11T23:36:01.407Z,16.23
2017-12-11T23:38:29.328Z,21.60
2017-12-11T23:40:56.913Z,17.13
2017-12-11T23:43:25.143Z,23.27
2017-12-11T23:45:52.742Z,18.07
2017-12-11T23:48:21.108Z,18.87
2017-12-11T23:50:49.196Z,21.47
2017-12-11T23:53:16.963Z,14.90
2017-12-11T23:55:45.974Z,15.97
2017-12-11T23:58:14.379Z,13.87
